Wetterdaten: Woche 30.10.17 - 05.11.17 (KW44)
Datum Zeit Temperatur Luftfeuchte Luftdruck Niederschlag Windrichtung Sonnenschein Solar Wind
30.10.2017 00:00 1,5 C 95 % 1019,1 hPa 0,0 l/m N 0,00 h 0 W/m 0,0 km/h (0 Bft)
30.10.2017 01:00 0,8 C 95 % 1019,5 hPa 0,0 l/m N 0,00 h 0 W/m 0,0 km/h (0 Bft)
30.10.2017 02:00 0,1 C 95 % 1019,9 hPa 0,0 l/m N 0,00 h 0 W/m 0,0 km/h (0 Bft)
30.10.2017 03:00 -0,3 C 95 % 1020,5 hPa 0,0 l/m N 0,00 h 0 W/m 0,3 km/h (0 Bft)
30.10.2017 04:00 -0,6 C 96 % 1021,2 hPa 0,0 l/m N 0,00 h 0 W/m 0,7 km/h (0 Bft)
30.10.2017 05:00 0,2 C 97 % 1021,6 hPa 0,0 l/m N 0,00 h 0 W/m 0,0 km/h (0 Bft)
30.10.2017 06:00 1,2 C 97 % 1022,1 hPa 0,0 l/m N-NW 0,00 h 0 W/m 1,2 km/h (1 Bft)
30.10.2017 07:00 1,6 C 97 % 1022,8 hPa 0,0 l/m N-NW 0,25 h 28 W/m 1,3 km/h (1 Bft)
30.10.2017 08:00 2,3 C 97 % 1023,4 hPa 0,2 l/m NW 0,08 h 88 W/m 2,8 km/h (1 Bft)
30.10.2017 09:00 4,1 C 94 % 1023,9 hPa 0,0 l/m NW 0,08 h 136 W/m 5,9 km/h (2 Bft)
30.10.2017 10:00 5,0 C 87 % 1024,2 hPa 0,0 l/m W-NW 0,25 h 235 W/m 6,7 km/h (2 Bft)
30.10.2017 11:00 5,9 C 82 % 1024,3 hPa 0,0 l/m W-NW 0,42 h 222 W/m 7,5 km/h (2 Bft)
30.10.2017 12:00 6,5 C 79 % 1024,4 hPa 0,0 l/m NW 0,67 h 360 W/m 6,6 km/h (2 Bft)
30.10.2017 13:00 6,5 C 76 % 1024,4 hPa 0,0 l/m NW 0,17 h 196 W/m 6,3 km/h (2 Bft)
30.10.2017 14:00 6,7 C 74 % 1024,7 hPa 0,0 l/m N 0,00 h 139 W/m 3,7 km/h (1 Bft)
30.10.2017 15:00 6,5 C 72 % 1025,0 hPa 0,0 l/m N 0,00 h 77 W/m 1,6 km/h (1 Bft)
30.10.2017 16:00 5,6 C 78 % 1025,2 hPa 0,0 l/m N 0,08 h 29 W/m 0,0 km/h (0 Bft)
30.10.2017 17:00 4,8 C 86 % 1025,8 hPa 0,0 l/m N 0,00 h 5 W/m 0,0 km/h (0 Bft)
30.10.2017 18:00 4,3 C 88 % 1026,7 hPa 0,0 l/m N 0,00 h 0 W/m 0,0 km/h (0 Bft)
30.10.2017 19:00 3,6 C 89 % 1027,2 hPa 0,0 l/m N 0,00 h 0 W/m 0,0 km/h (0 Bft)
30.10.2017 20:00 2,6 C 89 % 1027,5 hPa 0,0 l/m N 0,00 h 0 W/m 0,0 km/h (0 Bft)
30.10.2017 21:00 1,6 C 90 % 1027,7 hPa 0,0 l/m N 0,00 h 0 W/m 0,1 km/h (0 Bft)
30.10.2017 22:00 0,9 C 91 % 1027,6 hPa 0,0 l/m N 0,00 h 0 W/m 0,0 km/h (0 Bft)
30.10.2017 23:00 0,3 C 92 % 1027,3 hPa 0,0 l/m N 0,00 h 0 W/m 0,0 km/h (0 Bft)
31.10.2017 00:00 -0,1 C 93 % 1027,0 hPa 0,0 l/m N 0,00 h 0 W/m 1,9 km/h (1 Bft)
31.10.2017 01:00 0,0 C 95 % 1026,8 hPa 0,0 l/m N 0,00 h 0 W/m 0,4 km/h (0 Bft)
31.10.2017 02:00 -0,6 C 95 % 1026,9 hPa 0,0 l/m N 0,00 h 0 W/m 0,0 km/h (0 Bft)
31.10.2017 03:00 -0,9 C 94 % 1026,8 hPa 0,0 l/m N 0,00 h 0 W/m 0,0 km/h (0 Bft)
31.10.2017 04:00 -1,2 C 95 % 1026,9 hPa 0,0 l/m N 0,00 h 0 W/m 0,3 km/h (0 Bft)
31.10.2017 05:00 -1,2 C 95 % 1026,8 hPa 0,0 l/m N 0,00 h 0 W/m 0,0 km/h (0 Bft)
31.10.2017 06:00 -1,3 C 95 % 1026,8 hPa 0,0 l/m N 0,00 h 0 W/m 0,0 km/h (0 Bft)
31.10.2017 07:00 -1,4 C 95 % 1027,0 hPa 0,0 l/m N 0,08 h 30 W/m 0,3 km/h (0 Bft)
31.10.2017 08:00 -0,4 C 97 % 1027,2 hPa 0,0 l/m N 0,92 h 135 W/m 4,3 km/h (1 Bft)
31.10.2017 09:00 2,3 C 96 % 1027,2 hPa 0,0 l/m N 1,00 h 290 W/m 3,1 km/h (1 Bft)
31.10.2017 10:00 4,5 C 92 % 1027,3 hPa 0,0 l/m NO 1,00 h 353 W/m 7,6 km/h (2 Bft)
31.10.2017 11:00 6,5 C 81 % 1026,9 hPa 0,0 l/m NO 1,00 h 454 W/m 9,8 km/h (2 Bft)
31.10.2017 12:00 7,8 C 70 % 1026,2 hPa 0,0 l/m NO 1,00 h 446 W/m 11,3 km/h (2 Bft)
31.10.2017 13:00 8,6 C 64 % 1026,0 hPa 0,0 l/m O-NO 1,00 h 395 W/m 13,3 km/h (3 Bft)
31.10.2017 14:00 8,7 C 65 % 1025,9 hPa 0,0 l/m O 1,00 h 302 W/m 7,5 km/h (2 Bft)
31.10.2017 15:00 8,4 C 67 % 1025,7 hPa 0,0 l/m O 0,83 h 148 W/m 6,0 km/h (2 Bft)
31.10.2017 16:00 7,2 C 70 % 1025,5 hPa 0,0 l/m N 0,08 h 31 W/m 0,7 km/h (0 Bft)
31.10.2017 17:00 4,3 C 84 % 1025,7 hPa 0,0 l/m N 0,00 h 6 W/m 0,0 km/h (0 Bft)
31.10.2017 18:00 2,8 C 89 % 1025,8 hPa 0,0 l/m N 0,00 h 0 W/m 0,0 km/h (0 Bft)
31.10.2017 19:00 1,8 C 91 % 1025,7 hPa 0,0 l/m N 0,00 h 0 W/m 0,0 km/h (0 Bft)
31.10.2017 20:00 1,3 C 93 % 1025,9 hPa 0,0 l/m N 0,00 h 0 W/m 0,0 km/h (0 Bft)
31.10.2017 21:00 0,9 C 95 % 1026,1 hPa 0,0 l/m N 0,00 h 0 W/m 0,0 km/h (0 Bft)
31.10.2017 22:00 1,3 C 95 % 1025,9 hPa 0,0 l/m N 0,00 h 0 W/m 0,0 km/h (0 Bft)
31.10.2017 23:00 1,0 C 95 % 1025,7 hPa 0,0 l/m N 0,00 h 0 W/m 0,0 km/h (0 Bft)
01.11.2017 00:00 0,7 C 95 % 1025,5 hPa 0,0 l/m N 0,00 h 0 W/m 0,0 km/h (0 Bft)
01.11.2017 01:00 1,1 C 96 % 1025,1 hPa 0,0 l/m N 0,00 h 0 W/m 0,0 km/h (0 Bft)
01.11.2017 02:00 1,2 C 96 % 1025,3 hPa 0,0 l/m N 0,00 h 0 W/m 0,0 km/h (0 Bft)
01.11.2017 03:00 1,7 C 96 % 1025,0 hPa 0,0 l/m N 0,00 h 0 W/m 0,3 km/h (0 Bft)
01.11.2017 04:00 1,7 C 96 % 1025,0 hPa 0,0 l/m N 0,00 h 0 W/m 0,0 km/h (0 Bft)
01.11.2017 05:00 2,0 C 96 % 1024,8 hPa 0,0 l/m N 0,00 h 0 W/m 0,7 km/h (0 Bft)
01.11.2017 06:00 2,6 C 96 % 1024,5 hPa 0,0 l/m O 0,00 h 0 W/m 2,8 km/h (1 Bft)
01.11.2017 07:00 3,0 C 96 % 1024,5 hPa 0,0 l/m SO 0,00 h 18 W/m 6,4 km/h (2 Bft)
01.11.2017 08:00 3,6 C 97 % 1025,0 hPa 0,0 l/m S-SO 0,00 h 55 W/m 4,3 km/h (1 Bft)
01.11.2017 09:00 4,6 C 97 % 1024,9 hPa 0,0 l/m S-SW 0,00 h 98 W/m 9,1 km/h (2 Bft)
01.11.2017 10:00 5,8 C 94 % 1024,9 hPa 0,0 l/m S-SW 0,08 h 162 W/m 5,8 km/h (1 Bft)
01.11.2017 11:00 6,5 C 93 % 1024,4 hPa 0,2 l/m S-SW 0,00 h 135 W/m 8,5 km/h (2 Bft)
01.11.2017 12:00 7,9 C 90 % 1023,9 hPa 0,0 l/m S-SW 0,42 h 266 W/m 10,1 km/h (2 Bft)
01.11.2017 13:00 9,7 C 83 % 1023,2 hPa 0,0 l/m S-SW 0,83 h 376 W/m 9,9 km/h (2 Bft)
01.11.2017 14:00 11,6 C 74 % 1022,5 hPa 0,0 l/m S 0,67 h 284 W/m 9,4 km/h (2 Bft)
01.11.2017 15:00 11,1 C 74 % 1022,1 hPa 0,0 l/m S-SW 0,42 h 118 W/m 5,1 km/h (1 Bft)
01.11.2017 16:00 9,9 C 79 % 1021,7 hPa 0,2 l/m N 0,00 h 27 W/m 1,2 km/h (1 Bft)
01.11.2017 17:00 7,3 C 88 % 1021,8 hPa 0,0 l/m N 0,00 h 0 W/m 0,0 km/h (0 Bft)
01.11.2017 18:00 5,7 C 92 % 1021,6 hPa 0,0 l/m N 0,00 h 0 W/m 0,0 km/h (0 Bft)
01.11.2017 19:00 4,9 C 93 % 1021,5 hPa 0,0 l/m N 0,00 h 0 W/m 0,0 km/h (0 Bft)
01.11.2017 20:00 4,3 C 93 % 1021,1 hPa 0,0 l/m N 0,00 h 0 W/m 0,0 km/h (0 Bft)
01.11.2017 21:00 3,6 C 93 % 1021,0 hPa 0,0 l/m N 0,00 h 0 W/m 0,0 km/h (0 Bft)
01.11.2017 22:00 3,1 C 93 % 1020,7 hPa 0,0 l/m N 0,00 h 0 W/m 0,0 km/h (0 Bft)
01.11.2017 23:00 2,6 C 94 % 1020,2 hPa 0,0 l/m N 0,00 h 0 W/m 0,0 km/h (0 Bft)
02.11.2017 00:00 2,2 C 94 % 1019,8 hPa 0,0 l/m N 0,00 h 0 W/m 0,0 km/h (0 Bft)
02.11.2017 01:00 1,9 C 95 % 1019,2 hPa 0,0 l/m N 0,00 h 0 W/m 0,1 km/h (0 Bft)
02.11.2017 02:00 1,9 C 95 % 1018,6 hPa 0,0 l/m N 0,00 h 0 W/m 0,0 km/h (0 Bft)
02.11.2017 03:00 2,7 C 96 % 1018,2 hPa 0,0 l/m S-SW 0,00 h 0 W/m 0,5 km/h (0 Bft)
02.11.2017 04:00 4,5 C 97 % 1018,0 hPa 0,0 l/m S-SW 0,00 h 0 W/m 2,8 km/h (1 Bft)
02.11.2017 05:00 4,6 C 97 % 1017,6 hPa 0,0 l/m S-SW 0,00 h 0 W/m 1,6 km/h (1 Bft)
02.11.2017 06:00 4,2 C 97 % 1017,4 hPa 0,0 l/m S-SW 0,00 h 0 W/m 1,1 km/h (0 Bft)
02.11.2017 07:00 4,3 C 98 % 1017,4 hPa 0,0 l/m S-SW 0,00 h 17 W/m 11,4 km/h (2 Bft)
02.11.2017 08:00 4,6 C 98 % 1017,4 hPa 0,0 l/m SW 0,00 h 60 W/m 13,6 km/h (3 Bft)
02.11.2017 09:00 6,6 C 97 % 1017,4 hPa 0,0 l/m SW 0,75 h 213 W/m 14,4 km/h (3 Bft)
02.11.2017 10:00 9,6 C 88 % 1017,2 hPa 0,0 l/m SW 0,75 h 256 W/m 16,8 km/h (3 Bft)
02.11.2017 11:00 11,4 C 76 % 1016,8 hPa 0,0 l/m SW 0,75 h 292 W/m 24,0 km/h (4 Bft)
02.11.2017 12:00 12,3 C 71 % 1016,2 hPa 0,0 l/m W-SW 0,92 h 322 W/m 24,4 km/h (4 Bft)
02.11.2017 13:00 12,7 C 71 % 1015,8 hPa 0,0 l/m W-SW 0,92 h 259 W/m 19,2 km/h (3 Bft)
02.11.2017 14:00 12,6 C 73 % 1015,2 hPa 0,0 l/m W-SW 0,08 h 136 W/m 18,8 km/h (3 Bft)
02.11.2017 15:00 12,2 C 75 % 1015,2 hPa 0,0 l/m W-SW 0,00 h 94 W/m 17,2 km/h (3 Bft)
02.11.2017 16:00 11,9 C 77 % 1015,2 hPa 0,0 l/m SW 0,00 h 12 W/m 12,7 km/h (3 Bft)
02.11.2017 17:00 11,2 C 80 % 1015,3 hPa 0,0 l/m SW 0,00 h 0 W/m 6,6 km/h (2 Bft)
02.11.2017 18:00 11,3 C 80 % 1015,6 hPa 0,0 l/m SW 0,00 h 0 W/m 11,7 km/h (2 Bft)
02.11.2017 19:00 10,9 C 82 % 1015,8 hPa 0,0 l/m SW 0,00 h 0 W/m 2,1 km/h (1 Bft)
02.11.2017 20:00 10,1 C 87 % 1016,0 hPa 0,0 l/m N 0,00 h 0 W/m 0,0 km/h (0 Bft)
02.11.2017 21:00 9,7 C 88 % 1016,2 hPa 0,0 l/m N 0,00 h 0 W/m 0,1 km/h (0 Bft)
02.11.2017 22:00 9,3 C 90 % 1016,1 hPa 0,0 l/m SW 0,00 h 0 W/m 3,7 km/h (1 Bft)
02.11.2017 23:00 9,7 C 88 % 1015,9 hPa 0,0 l/m N 0,00 h 0 W/m 1,9 km/h (1 Bft)
03.11.2017 00:00 9,2 C 88 % 1016,0 hPa 0,0 l/m N 0,00 h 0 W/m 0,0 km/h (0 Bft)
03.11.2017 01:00 8,6 C 90 % 1015,9 hPa 0,0 l/m N 0,00 h 0 W/m 0,5 km/h (0 Bft)
03.11.2017 02:00 8,5 C 92 % 1015,8 hPa 0,0 l/m N 0,00 h 0 W/m 0,3 km/h (0 Bft)
03.11.2017 03:00 8,4 C 93 % 1015,9 hPa 0,0 l/m N 0,00 h 0 W/m 0,0 km/h (0 Bft)
03.11.2017 04:00 8,2 C 93 % 1015,9 hPa 0,0 l/m N 0,00 h 0 W/m 0,0 km/h (0 Bft)
03.11.2017 05:00 8,1 C 94 % 1015,9 hPa 0,0 l/m N 0,00 h 0 W/m 0,0 km/h (0 Bft)
03.11.2017 06:00 7,9 C 94 % 1015,8 hPa 0,0 l/m N 0,00 h 0 W/m 0,0 km/h (0 Bft)
03.11.2017 07:00 7,7 C 95 % 1016,0 hPa 0,0 l/m N 0,00 h 20 W/m 0,0 km/h (0 Bft)
03.11.2017 08:00 7,6 C 95 % 1016,2 hPa 0,0 l/m N 0,42 h 100 W/m 0,0 km/h (0 Bft)
03.11.2017 09:00 8,7 C 96 % 1016,1 hPa 0,0 l/m N 0,00 h 148 W/m 0,0 km/h (0 Bft)
03.11.2017 10:00 10,4 C 91 % 1016,0 hPa 0,0 l/m N 0,00 h 190 W/m 0,4 km/h (0 Bft)
03.11.2017 11:00 11,8 C 86 % 1015,6 hPa 0,0 l/m SW 0,08 h 227 W/m 3,6 km/h (1 Bft)
03.11.2017 12:00 12,9 C 80 % 1014,9 hPa 0,0 l/m S-SW 1,00 h 346 W/m 6,8 km/h (2 Bft)
03.11.2017 13:00 13,4 C 76 % 1014,3 hPa 0,0 l/m S-SW 0,25 h 211 W/m 3,2 km/h (1 Bft)
03.11.2017 14:00 13,9 C 71 % 1013,9 hPa 0,0 l/m S-SW 0,58 h 214 W/m 2,9 km/h (1 Bft)
03.11.2017 15:00 13,8 C 69 % 1013,6 hPa 0,0 l/m S 0,75 h 136 W/m 4,7 km/h (1 Bft)
03.11.2017 16:00 12,4 C 74 % 1013,4 hPa 0,0 l/m SO 0,00 h 28 W/m 6,3 km/h (2 Bft)
03.11.2017 17:00 9,7 C 83 % 1013,3 hPa 0,0 l/m N 0,00 h 5 W/m 0,0 km/h (0 Bft)
03.11.2017 18:00 7,5 C 90 % 1013,3 hPa 0,0 l/m N 0,00 h 0 W/m 0,0 km/h (0 Bft)
03.11.2017 19:00 6,5 C 93 % 1013,1 hPa 0,0 l/m N 0,00 h 0 W/m 0,0 km/h (0 Bft)
03.11.2017 20:00 6,0 C 93 % 1012,9 hPa 0,0 l/m N 0,00 h 0 W/m 0,0 km/h (0 Bft)
03.11.2017 21:00 5,6 C 94 % 1012,8 hPa 0,0 l/m N 0,00 h 0 W/m 0,5 km/h (0 Bft)
03.11.2017 22:00 5,3 C 95 % 1012,7 hPa 0,0 l/m SO 0,00 h 0 W/m 3,3 km/h (1 Bft)
03.11.2017 23:00 5,1 C 95 % 1012,6 hPa 0,0 l/m O-SO 0,00 h 0 W/m 2,7 km/h (1 Bft)
04.11.2017 00:00 4,6 C 95 % 1012,6 hPa 0,0 l/m N 0,00 h 0 W/m 0,0 km/h (0 Bft)
04.11.2017 01:00 3,7 C 95 % 1012,7 hPa 0,0 l/m N 0,00 h 0 W/m 0,0 km/h (0 Bft)
04.11.2017 02:00 2,7 C 95 % 1012,5 hPa 0,0 l/m N 0,00 h 0 W/m 0,0 km/h (0 Bft)
04.11.2017 03:00 2,2 C 96 % 1012,6 hPa 0,0 l/m N 0,00 h 0 W/m 0,0 km/h (0 Bft)
04.11.2017 04:00 2,0 C 96 % 1012,7 hPa 0,0 l/m N 0,00 h 0 W/m 0,0 km/h (0 Bft)
04.11.2017 05:00 1,7 C 96 % 1012,6 hPa 0,0 l/m N 0,00 h 0 W/m 0,0 km/h (0 Bft)
04.11.2017 06:00 2,3 C 97 % 1012,5 hPa 0,0 l/m N 0,00 h 0 W/m 0,0 km/h (0 Bft)
04.11.2017 07:00 3,5 C 98 % 1012,7 hPa 0,0 l/m N 0,00 h 11 W/m 0,0 km/h (0 Bft)
04.11.2017 08:00 4,9 C 98 % 1013,0 hPa 0,0 l/m N 0,00 h 71 W/m 0,1 km/h (0 Bft)
04.11.2017 09:00 6,6 C 99 % 1012,8 hPa 0,0 l/m O-SO 0,42 h 164 W/m 3,9 km/h (1 Bft)
04.11.2017 10:00 8,6 C 97 % 1012,7 hPa 0,0 l/m SO 0,25 h 206 W/m 7,2 km/h (2 Bft)
04.11.2017 11:00 11,3 C 86 % 1012,4 hPa 0,0 l/m S-SW 0,83 h 380 W/m 11,3 km/h (2 Bft)
04.11.2017 12:00 14,2 C 76 % 1011,9 hPa 0,0 l/m S-SW 1,00 h 450 W/m 12,9 km/h (3 Bft)
04.11.2017 13:00 15,8 C 71 % 1011,3 hPa 0,0 l/m W-SW 1,00 h 375 W/m 19,6 km/h (3 Bft)
04.11.2017 14:00 15,5 C 70 % 1011,0 hPa 0,0 l/m SW 0,92 h 229 W/m 17,6 km/h (3 Bft)
04.11.2017 15:00 14,5 C 75 % 1011,1 hPa 0,0 l/m SW 0,17 h 78 W/m 8,3 km/h (2 Bft)
04.11.2017 16:00 13,5 C 79 % 1010,9 hPa 0,0 l/m SW 0,08 h 25 W/m 8,3 km/h (2 Bft)
04.11.2017 17:00 12,0 C 83 % 1010,9 hPa 0,0 l/m SW 0,00 h 0 W/m 6,1 km/h (2 Bft)
04.11.2017 18:00 11,8 C 84 % 1011,0 hPa 0,0 l/m SW 0,00 h 0 W/m 3,3 km/h (1 Bft)
04.11.2017 19:00 10,6 C 88 % 1010,8 hPa 0,0 l/m N 0,00 h 0 W/m 0,0 km/h (0 Bft)
04.11.2017 20:00 9,7 C 92 % 1010,5 hPa 0,0 l/m N 0,00 h 0 W/m 0,0 km/h (0 Bft)
04.11.2017 21:00 9,0 C 93 % 1010,4 hPa 0,0 l/m N 0,00 h 0 W/m 0,0 km/h (0 Bft)
04.11.2017 22:00 8,5 C 94 % 1009,9 hPa 0,0 l/m N 0,00 h 0 W/m 0,0 km/h (0 Bft)
04.11.2017 23:00 8,3 C 95 % 1009,3 hPa 0,0 l/m N 0,00 h 0 W/m 0,0 km/h (0 Bft)
05.11.2017 00:00 8,2 C 95 % 1008,1 hPa 0,0 l/m N 0,00 h 0 W/m 0,1 km/h (0 Bft)
05.11.2017 01:00 7,9 C 95 % 1007,1 hPa 0,0 l/m N 0,00 h 0 W/m 0,0 km/h (0 Bft)
05.11.2017 02:00 7,3 C 95 % 1006,3 hPa 0,0 l/m SW 0,00 h 0 W/m 5,6 km/h (1 Bft)
05.11.2017 03:00 7,7 C 96 % 1005,6 hPa 0,0 l/m N-NW 0,00 h 0 W/m 10,5 km/h (2 Bft)
05.11.2017 04:00 7,8 C 96 % 1005,4 hPa 0,0 l/m N-NW 0,00 h 0 W/m 7,1 km/h (2 Bft)
05.11.2017 05:00 7,5 C 96 % 1005,9 hPa 0,0 l/m N 0,00 h 0 W/m 0,8 km/h (0 Bft)
05.11.2017 06:00 7,1 C 96 % 1006,0 hPa 0,0 l/m N-NW 0,00 h 0 W/m 4,4 km/h (1 Bft)
05.11.2017 07:00 7,0 C 97 % 1005,8 hPa 0,0 l/m SW 0,00 h 17 W/m 4,7 km/h (1 Bft)
05.11.2017 08:00 7,5 C 97 % 1005,8 hPa 0,0 l/m SW 0,00 h 43 W/m 0,9 km/h (0 Bft)
05.11.2017 09:00 8,4 C 98 % 1005,7 hPa 0,0 l/m SW 0,00 h 48 W/m 2,7 km/h (1 Bft)
05.11.2017 10:00 9,1 C 98 % 1005,8 hPa 1,2 l/m SW 0,00 h 47 W/m 7,0 km/h (2 Bft)
05.11.2017 11:00 9,6 C 98 % 1005,8 hPa 1,0 l/m W-SW 0,00 h 47 W/m 8,5 km/h (2 Bft)
05.11.2017 12:00 9,0 C 97 % 1006,3 hPa 4,0 l/m W-NW 0,00 h 38 W/m 19,2 km/h (3 Bft)
05.11.2017 13:00 6,8 C 95 % 1007,9 hPa 3,6 l/m W-NW 0,00 h 28 W/m 16,9 km/h (3 Bft)
05.11.2017 14:00 6,1 C 96 % 1009,5 hPa 3,0 l/m W-SW 0,00 h 31 W/m 11,5 km/h (2 Bft)
05.11.2017 15:00 6,0 C 96 % 1010,5 hPa 0,4 l/m W-SW 0,00 h 26 W/m 12,2 km/h (2 Bft)
05.11.2017 16:00 5,8 C 97 % 1011,0 hPa 0,0 l/m W-SW 0,00 h 8 W/m 11,8 km/h (2 Bft)
05.11.2017 17:00 5,4 C 96 % 1011,7 hPa 0,0 l/m W-NW 0,00 h 0 W/m 11,4 km/h (2 Bft)
05.11.2017 18:00 4,9 C 96 % 1012,4 hPa 0,0 l/m W-NW 0,00 h 0 W/m 8,2 km/h (2 Bft)
05.11.2017 19:00 4,7 C 95 % 1012,9 hPa 0,0 l/m W-NW 0,00 h 0 W/m 0,9 km/h (0 Bft)
05.11.2017 20:00 4,4 C 96 % 1013,2 hPa 0,0 l/m W-NW 0,00 h 0 W/m 0,4 km/h (0 Bft)
05.11.2017 21:00 4,2 C 96 % 1013,4 hPa 0,0 l/m N 0,00 h 0 W/m 0,0 km/h (0 Bft)
05.11.2017 22:00 4,1 C 96 % 1013,7 hPa 0,2 l/m N 0,00 h 0 W/m 0,0 km/h (0 Bft)
05.11.2017 23:00 4,0 C 96 % 1013,8 hPa 0,0 l/m N 0,00 h 0 W/m 0,3 km/h (0 Bft)
Min-Datum _ 31.10.17 31.10.17 05.11.17 - - - - 30.10.17
_ Min-Zeit 07:20 13:30 04:15 - - - - 00:00
Minimum _ -1,5 C 62 % 1005,2 hPa - - - - 0,0 km/h (0 Bft)
Max-Datum _ 04.11.17 31.10.17 30.10.17 05.11.17 - 30.10.17 30.10.17 02.11.17
_ Max-Zeit 13:30 01:35 20:45 12:25 - 07:15 12:15 12:15
Maximum _ 16,0 C 100 % 1027,7 hPa 4,0 l/m - 0,08 h 693 W/m 35,4 km/h
SW (5 Bft)
Durchschnitt _ 6,0 C 90 % 1017,9 hPa #14,0 l/m SW #24:15 h 154 W/m 4,0 km/h (1 Bft)